Terminal Aerodrome Forecast
Issued by NWS

Home | Current Version | Previous Version | Graphics & Text | Print | Product List | Glossary On
Versions: 1 2 3 4 5 6 7 8 9 10 11 12 13 14 15 16 17 18 19 20 21 22 23 24 25
322
FTUS43 KSGF 260520
TAFJLN
TAF
KJLN 260520Z 2606/2706 VRB04KT P6SM SKC
     FM260800 18005KT P6SM OVC250
     FM261000 17006KT P6SM OVC100
     FM261700 18010KT P6SM OVC035 PROB30 2617/2621 5SM -RA BR OVC025
     FM262300 VRB04KT P6SM OVC060=

USA.gov is the U.S. government's official web portal to all federal, state and local government web resources and services.